sensor_id;sensor_type;location;lat;lon;timestamp;temperature;humidity
15997;DHT22;8103;51.340;12.326;2022-10-31T00:01:27;14.20;99.90
15997;DHT22;8103;51.340;12.326;2022-10-31T00:04:05;14.10;99.90
15997;DHT22;8103;51.340;12.326;2022-10-31T00:06:32;14.10;99.90
15997;DHT22;8103;51.340;12.326;2022-10-31T00:09:01;14.10;99.90
15997;DHT22;8103;51.340;12.326;2022-10-31T00:11:29;14.20;99.90
15997;DHT22;8103;51.340;12.326;2022-10-31T00:13:57;14.10;99.90
15997;DHT22;8103;51.340;12.326;2022-10-31T00:16:27;14.10;99.90
15997;DHT22;8103;51.340;12.326;2022-10-31T00:18:58;14.20;99.90
15997;DHT22;8103;51.340;12.326;2022-10-31T00:21:27;14.20;99.90
15997;DHT22;8103;51.340;12.326;2022-10-31T00:23:57;14.20;99.90
15997;DHT22;8103;51.340;12.326;2022-10-31T00:26:30;14.20;99.90
15997;DHT22;8103;51.340;12.326;2022-10-31T00:28:58;14.20;99.90
15997;DHT22;8103;51.340;12.326;2022-10-31T00:31:26;14.20;99.90
15997;DHT22;8103;51.340;12.326;2022-10-31T00:33:54;14.20;99.90
15997;DHT22;8103;51.340;12.326;2022-10-31T00:36:21;14.20;99.90
15997;DHT22;8103;51.340;12.326;2022-10-31T00:38:48;14.10;99.90
15997;DHT22;8103;51.340;12.326;2022-10-31T00:41:17;14.10;99.90
15997;DHT22;8103;51.340;12.326;2022-10-31T00:43:44;14.00;99.90
15997;DHT22;8103;51.340;12.326;2022-10-31T00:46:12;14.00;99.90
15997;DHT22;8103;51.340;12.326;2022-10-31T00:48:39;14.00;99.90
15997;DHT22;8103;51.340;12.326;2022-10-31T00:51:07;14.00;99.90
15997;DHT22;8103;51.340;12.326;2022-10-31T00:53:34;14.10;99.90
15997;DHT22;8103;51.340;12.326;2022-10-31T00:56:02;14.00;99.90
15997;DHT22;8103;51.340;12.326;2022-10-31T00:58:29;14.00;99.90
15997;DHT22;8103;51.340;12.326;2022-10-31T01:00:56;14.00;99.90
15997;DHT22;8103;51.340;12.326;2022-10-31T01:03:25;14.00;99.90
15997;DHT22;8103;51.340;12.326;2022-10-31T01:06:05;14.00;99.90
15997;DHT22;8103;51.340;12.326;2022-10-31T01:08:35;13.90;99.90
15997;DHT22;8103;51.340;12.326;2022-10-31T01:13:42;13.80;99.90
15997;DHT22;8103;51.340;12.326;2022-10-31T01:16:13;13.80;99.90
15997;DHT22;8103;51.340;12.326;2022-10-31T01:18:44;13.80;99.90
15997;DHT22;8103;51.340;12.326;2022-10-31T01:21:25;13.70;99.90
15997;DHT22;8103;51.340;12.326;2022-10-31T01:23:55;13.70;99.90
15997;DHT22;8103;51.340;12.326;2022-10-31T01:26:24;13.70;99.90
15997;DHT22;8103;51.340;12.326;2022-10-31T01:28:58;13.60;99.90
15997;DHT22;8103;51.340;12.326;2022-10-31T01:31:32;13.60;99.90
15997;DHT22;8103;51.340;12.326;2022-10-31T01:34:02;13.60;99.90
15997;DHT22;8103;51.340;12.326;2022-10-31T01:36:35;13.50;99.90
15997;DHT22;8103;51.340;12.326;2022-10-31T01:39:06;13.50;99.90
15997;DHT22;8103;51.340;12.326;2022-10-31T01:41:37;13.50;99.90
15997;DHT22;8103;51.340;12.326;2022-10-31T01:46:52;13.50;99.90
15997;DHT22;8103;51.340;12.326;2022-10-31T01:49:39;13.40;99.90
15997;DHT22;8103;51.340;12.326;2022-10-31T01:52:26;13.40;99.90
15997;DHT22;8103;51.340;12.326;2022-10-31T01:55:12;13.40;99.90
15997;DHT22;8103;51.340;12.326;2022-10-31T01:57:47;13.30;99.90
15997;DHT22;8103;51.340;12.326;2022-10-31T02:00:20;13.30;99.90
15997;DHT22;8103;51.340;12.326;2022-10-31T02:02:49;13.30;99.90
15997;DHT22;8103;51.340;12.326;2022-10-31T02:05:21;13.20;99.90
15997;DHT22;8103;51.340;12.326;2022-10-31T02:07:58;13.20;99.90
15997;DHT22;8103;51.340;12.326;2022-10-31T02:10:33;13.20;99.90
15997;DHT22;8103;51.340;12.326;2022-10-31T02:13:05;13.20;99.90
15997;DHT22;8103;51.340;12.326;2022-10-31T02:15:35;13.10;99.90
15997;DHT22;8103;51.340;12.326;2022-10-31T02:18:05;13.10;99.90
15997;DHT22;8103;51.340;12.326;2022-10-31T02:21:17;13.10;99.90
15997;DHT22;8103;51.340;12.326;2022-10-31T02:24:07;13.00;99.90
15997;DHT22;8103;51.340;12.326;2022-10-31T02:26:54;13.00;99.90
15997;DHT22;8103;51.340;12.326;2022-10-31T02:32:43;13.00;99.90
15997;DHT22;8103;51.340;12.326;2022-10-31T02:35:27;13.00;99.90
15997;DHT22;8103;51.340;12.326;2022-10-31T02:41:10;12.90;99.90
15997;DHT22;8103;51.340;12.326;2022-10-31T02:47:18;12.80;99.90
15997;DHT22;8103;51.340;12.326;2022-10-31T02:50:06;12.80;99.90
15997;DHT22;8103;51.340;12.326;2022-10-31T02:52:37;12.80;99.90
15997;DHT22;8103;51.340;12.326;2022-10-31T02:57:57;12.70;99.90
15997;DHT22;8103;51.340;12.326;2022-10-31T03:00:32;12.70;99.90
15997;DHT22;8103;51.340;12.326;2022-10-31T03:06:13;12.60;99.90
15997;DHT22;8103;51.340;12.326;2022-10-31T03:12:15;12.50;99.90
15997;DHT22;8103;51.340;12.326;2022-10-31T03:17:34;12.50;99.90
15997;DHT22;8103;51.340;12.326;2022-10-31T03:20:06;12.40;99.90
15997;DHT22;8103;51.340;12.326;2022-10-31T03:22:38;12.40;99.90
15997;DHT22;8103;51.340;12.326;2022-10-31T03:25:07;12.40;99.90
15997;DHT22;8103;51.340;12.326;2022-10-31T03:27:37;12.40;99.90
15997;DHT22;8103;51.340;12.326;2022-10-31T03:30:07;12.30;99.90
15997;DHT22;8103;51.340;12.326;2022-10-31T03:32:41;12.30;99.90
15997;DHT22;8103;51.340;12.326;2022-10-31T03:35:16;12.30;99.90
15997;DHT22;8103;51.340;12.326;2022-10-31T03:37:46;12.30;99.90
15997;DHT22;8103;51.340;12.326;2022-10-31T03:40:18;12.30;99.90
15997;DHT22;8103;51.340;12.326;2022-10-31T03:43:05;12.30;99.90
15997;DHT22;8103;51.340;12.326;2022-10-31T03:45:41;12.20;99.90
15997;DHT22;8103;51.340;12.326;2022-10-31T03:48:17;12.20;99.90
15997;DHT22;8103;51.340;12.326;2022-10-31T03:51:13;12.20;99.90
15997;DHT22;8103;51.340;12.326;2022-10-31T03:53:54;12.20;99.90
15997;DHT22;8103;51.340;12.326;2022-10-31T03:56:42;12.20;99.90
15997;DHT22;8103;51.340;12.326;2022-10-31T03:59:26;12.10;99.90
15997;DHT22;8103;51.340;12.326;2022-10-31T04:02:02;12.10;99.90
15997;DHT22;8103;51.340;12.326;2022-10-31T04:04:34;12.10;99.90
15997;DHT22;8103;51.340;12.326;2022-10-31T04:07:05;12.10;99.90
15997;DHT22;8103;51.340;12.326;2022-10-31T04:09:36;12.10;99.90
15997;DHT22;8103;51.340;12.326;2022-10-31T04:12:09;12.00;99.90
15997;DHT22;8103;51.340;12.326;2022-10-31T04:14:39;12.00;99.90
15997;DHT22;8103;51.340;12.326;2022-10-31T04:17:13;12.00;99.90
15997;DHT22;8103;51.340;12.326;2022-10-31T04:19:43;11.90;99.90
15997;DHT22;8103;51.340;12.326;2022-10-31T04:22:10;11.90;99.90
15997;DHT22;8103;51.340;12.326;2022-10-31T04:24:39;11.90;99.90
15997;DHT22;8103;51.340;12.326;2022-10-31T04:27:07;11.90;99.90
15997;DHT22;8103;51.340;12.326;2022-10-31T04:29:34;11.90;99.90
15997;DHT22;8103;51.340;12.326;2022-10-31T04:32:01;11.90;99.90
15997;DHT22;8103;51.340;12.326;2022-10-31T04:34:28;11.90;99.90
15997;DHT22;8103;51.340;12.326;2022-10-31T04:36:55;11.80;99.90
15997;DHT22;8103;51.340;12.326;2022-10-31T04:39:22;11.80;99.90
15997;DHT22;8103;51.340;12.326;2022-10-31T04:41:51;11.80;99.90
15997;DHT22;8103;51.340;12.326;2022-10-31T04:46:45;11.70;99.90
15997;DHT22;8103;51.340;12.326;2022-10-31T04:49:12;11.70;99.90
15997;DHT22;8103;51.340;12.326;2022-10-31T04:51:39;11.70;99.90
15997;DHT22;8103;51.340;12.326;2022-10-31T04:54:06;11.70;99.90
15997;DHT22;8103;51.340;12.326;2022-10-31T04:56:33;11.70;99.90
15997;DHT22;8103;51.340;12.326;2022-10-31T04:59:00;11.60;99.90
15997;DHT22;8103;51.340;12.326;2022-10-31T05:01:27;11.60;99.90
15997;DHT22;8103;51.340;12.326;2022-10-31T05:03:54;11.60;99.90
15997;DHT22;8103;51.340;12.326;2022-10-31T05:06:21;11.60;99.90
15997;DHT22;8103;51.340;12.326;2022-10-31T05:08:48;11.60;99.90
15997;DHT22;8103;51.340;12.326;2022-10-31T05:11:15;11.60;99.90
15997;DHT22;8103;51.340;12.326;2022-10-31T05:13:42;11.50;99.90
15997;DHT22;8103;51.340;12.326;2022-10-31T05:16:09;11.50;99.90
15997;DHT22;8103;51.340;12.326;2022-10-31T05:18:36;11.50;99.90
15997;DHT22;8103;51.340;12.326;2022-10-31T05:21:03;11.40;99.90
15997;DHT22;8103;51.340;12.326;2022-10-31T05:23:30;11.40;99.90
15997;DHT22;8103;51.340;12.326;2022-10-31T05:25:57;11.40;99.90
15997;DHT22;8103;51.340;12.326;2022-10-31T05:28:24;11.40;99.90
15997;DHT22;8103;51.340;12.326;2022-10-31T05:30:51;11.40;99.90
15997;DHT22;8103;51.340;12.326;2022-10-31T05:33:18;11.40;99.90
15997;DHT22;8103;51.340;12.326;2022-10-31T05:35:45;11.40;99.90
15997;DHT22;8103;51.340;12.326;2022-10-31T05:38:12;11.40;99.90
15997;DHT22;8103;51.340;12.326;2022-10-31T05:40:39;11.30;99.90
15997;DHT22;8103;51.340;12.326;2022-10-31T05:43:06;11.30;99.90
15997;DHT22;8103;51.340;12.326;2022-10-31T05:45:33;11.30;99.90
15997;DHT22;8103;51.340;12.326;2022-10-31T05:48:01;11.20;99.90
15997;DHT22;8103;51.340;12.326;2022-10-31T05:50:30;11.20;99.90
15997;DHT22;8103;51.340;12.326;2022-10-31T05:53:00;11.20;99.90
15997;DHT22;8103;51.340;12.326;2022-10-31T05:55:31;11.20;99.90
15997;DHT22;8103;51.340;12.326;2022-10-31T05:57:58;11.20;99.90
15997;DHT22;8103;51.340;12.326;2022-10-31T06:00:27;11.20;99.90
15997;DHT22;8103;51.340;12.326;2022-10-31T06:03:02;11.20;99.90
15997;DHT22;8103;51.340;12.326;2022-10-31T06:05:31;11.20;99.90
15997;DHT22;8103;51.340;12.326;2022-10-31T06:07:59;11.20;99.90
15997;DHT22;8103;51.340;12.326;2022-10-31T06:10:26;11.20;99.90
15997;DHT22;8103;51.340;12.326;2022-10-31T06:12:53;11.20;99.90
15997;DHT22;8103;51.340;12.326;2022-10-31T06:15:20;11.20;99.90
15997;DHT22;8103;51.340;12.326;2022-10-31T06:18:04;11.20;99.90
15997;DHT22;8103;51.340;12.326;2022-10-31T06:20:32;11.20;99.90
15997;DHT22;8103;51.340;12.326;2022-10-31T06:23:00;11.20;99.90
15997;DHT22;8103;51.340;12.326;2022-10-31T06:25:29;11.20;99.90
15997;DHT22;8103;51.340;12.326;2022-10-31T06:27:56;11.30;99.90
15997;DHT22;8103;51.340;12.326;2022-10-31T06:30:23;11.30;99.90
15997;DHT22;8103;51.340;12.326;2022-10-31T06:32:51;11.30;99.90
15997;DHT22;8103;51.340;12.326;2022-10-31T06:35:18;11.40;99.90
15997;DHT22;8103;51.340;12.326;2022-10-31T06:37:54;11.30;99.90
15997;DHT22;8103;51.340;12.326;2022-10-31T06:40:22;11.40;99.90
15997;DHT22;8103;51.340;12.326;2022-10-31T06:43:02;11.40;99.90
15997;DHT22;8103;51.340;12.326;2022-10-31T06:45:29;11.40;99.90
15997;DHT22;8103;51.340;12.326;2022-10-31T06:47:56;11.50;99.90
15997;DHT22;8103;51.340;12.326;2022-10-31T06:50:44;11.50;99.90
15997;DHT22;8103;51.340;12.326;2022-10-31T06:53:11;11.60;99.90
15997;DHT22;8103;51.340;12.326;2022-10-31T06:55:41;11.60;99.90
15997;DHT22;8103;51.340;12.326;2022-10-31T06:58:10;11.60;99.90
15997;DHT22;8103;51.340;12.326;2022-10-31T07:00:38;11.60;99.90
15997;DHT22;8103;51.340;12.326;2022-10-31T07:03:09;11.70;99.90
15997;DHT22;8103;51.340;12.326;2022-10-31T07:05:37;11.70;99.90
15997;DHT22;8103;51.340;12.326;2022-10-31T07:08:07;11.80;99.90
15997;DHT22;8103;51.340;12.326;2022-10-31T07:10:37;11.80;99.90
15997;DHT22;8103;51.340;12.326;2022-10-31T07:13:13;11.80;99.90
15997;DHT22;8103;51.340;12.326;2022-10-31T07:15:42;11.90;99.90
15997;DHT22;8103;51.340;12.326;2022-10-31T07:18:11;12.00;99.90
15997;DHT22;8103;51.340;12.326;2022-10-31T07:20:39;12.10;99.90
15997;DHT22;8103;51.340;12.326;2022-10-31T07:23:07;12.10;99.90
15997;DHT22;8103;51.340;12.326;2022-10-31T07:25:35;12.20;99.90
15997;DHT22;8103;51.340;12.326;2022-10-31T07:28:02;12.30;99.90
15997;DHT22;8103;51.340;12.326;2022-10-31T07:30:29;12.30;99.90
15997;DHT22;8103;51.340;12.326;2022-10-31T07:32:56;12.50;99.90
15997;DHT22;8103;51.340;12.326;2022-10-31T07:35:27;12.50;99.90
15997;DHT22;8103;51.340;12.326;2022-10-31T07:37:55;12.70;99.90
15997;DHT22;8103;51.340;12.326;2022-10-31T07:40:24;12.80;99.90
15997;DHT22;8103;51.340;12.326;2022-10-31T07:42:52;12.80;99.90
15997;DHT22;8103;51.340;12.326;2022-10-31T07:45:20;12.90;99.90
15997;DHT22;8103;51.340;12.326;2022-10-31T07:47:50;13.00;99.90
15997;DHT22;8103;51.340;12.326;2022-10-31T07:50:21;13.10;99.90
15997;DHT22;8103;51.340;12.326;2022-10-31T07:53:04;13.10;99.90
15997;DHT22;8103;51.340;12.326;2022-10-31T07:55:33;13.20;99.90
15997;DHT22;8103;51.340;12.326;2022-10-31T07:58:12;13.30;99.90
15997;DHT22;8103;51.340;12.326;2022-10-31T08:00:43;13.40;99.90
15997;DHT22;8103;51.340;12.326;2022-10-31T08:03:15;13.60;99.90
15997;DHT22;8103;51.340;12.326;2022-10-31T08:05:44;13.70;99.90
15997;DHT22;8103;51.340;12.326;2022-10-31T08:08:13;13.80;99.90
15997;DHT22;8103;51.340;12.326;2022-10-31T08:10:41;13.90;99.90
15997;DHT22;8103;51.340;12.326;2022-10-31T08:13:13;14.00;99.90
15997;DHT22;8103;51.340;12.326;2022-10-31T08:15:41;14.10;99.90
15997;DHT22;8103;51.340;12.326;2022-10-31T08:18:13;14.20;99.90
15997;DHT22;8103;51.340;12.326;2022-10-31T08:20:41;14.30;99.90
15997;DHT22;8103;51.340;12.326;2022-10-31T08:23:11;14.50;99.90
15997;DHT22;8103;51.340;12.326;2022-10-31T08:25:39;14.50;99.90
15997;DHT22;8103;51.340;12.326;2022-10-31T08:28:09;14.70;99.90
15997;DHT22;8103;51.340;12.326;2022-10-31T08:30:39;14.80;99.90
15997;DHT22;8103;51.340;12.326;2022-10-31T08:33:12;15.00;99.90
15997;DHT22;8103;51.340;12.326;2022-10-31T08:35:44;15.10;99.90
15997;DHT22;8103;51.340;12.326;2022-10-31T08:38:13;15.40;99.90
15997;DHT22;8103;51.340;12.326;2022-10-31T08:40:41;15.50;99.90
15997;DHT22;8103;51.340;12.326;2022-10-31T08:43:14;15.70;99.90
15997;DHT22;8103;51.340;12.326;2022-10-31T08:45:43;16.10;99.90
15997;DHT22;8103;51.340;12.326;2022-10-31T08:48:13;17.20;99.90
15997;DHT22;8103;51.340;12.326;2022-10-31T08:50:42;17.90;99.90
15997;DHT22;8103;51.340;12.326;2022-10-31T08:53:15;18.70;98.70
15997;DHT22;8103;51.340;12.326;2022-10-31T08:55:45;19.50;97.10
15997;DHT22;8103;51.340;12.326;2022-10-31T08:58:14;20.30;94.90
15997;DHT22;8103;51.340;12.326;2022-10-31T09:00:45;21.00;93.10
15997;DHT22;8103;51.340;12.326;2022-10-31T09:03:18;21.20;91.40
15997;DHT22;8103;51.340;12.326;2022-10-31T09:05:49;21.20;90.50
15997;DHT22;8103;51.340;12.326;2022-10-31T09:08:16;21.10;90.00
15997;DHT22;8103;51.340;12.326;2022-10-31T09:10:44;21.30;90.20
15997;DHT22;8103;51.340;12.326;2022-10-31T09:13:14;21.60;88.70
15997;DHT22;8103;51.340;12.326;2022-10-31T09:15:45;21.70;85.70
15997;DHT22;8103;51.340;12.326;2022-10-31T09:18:15;21.90;86.00
15997;DHT22;8103;51.340;12.326;2022-10-31T09:20:45;22.60;84.70
15997;DHT22;8103;51.340;12.326;2022-10-31T09:23:21;23.60;80.50
15997;DHT22;8103;51.340;12.326;2022-10-31T09:25:52;24.70;74.70
15997;DHT22;8103;51.340;12.326;2022-10-31T09:28:23;25.50;70.10
15997;DHT22;8103;51.340;12.326;2022-10-31T09:30:54;26.20;66.90
15997;DHT22;8103;51.340;12.326;2022-10-31T09:33:24;27.00;63.60
15997;DHT22;8103;51.340;12.326;2022-10-31T09:35:53;27.70;60.90
15997;DHT22;8103;51.340;12.326;2022-10-31T09:38:21;28.50;58.20
15997;DHT22;8103;51.340;12.326;2022-10-31T09:41:29;28.70;55.20
15997;DHT22;8103;51.340;12.326;2022-10-31T09:47:36;26.80;58.30
15997;DHT22;8103;51.340;12.326;2022-10-31T09:50:30;26.60;59.70
15997;DHT22;8103;51.340;12.326;2022-10-31T09:53:03;27.20;58.40
15997;DHT22;8103;51.340;12.326;2022-10-31T09:55:40;27.80;57.50
15997;DHT22;8103;51.340;12.326;2022-10-31T09:58:20;28.50;55.00
15997;DHT22;8103;51.340;12.326;2022-10-31T10:00:58;28.30;54.60
15997;DHT22;8103;51.340;12.326;2022-10-31T10:03:34;28.20;55.90
15997;DHT22;8103;51.340;12.326;2022-10-31T10:06:23;28.80;55.10
15997;DHT22;8103;51.340;12.326;2022-10-31T10:08:55;28.20;55.10
15997;DHT22;8103;51.340;12.326;2022-10-31T10:11:43;27.90;56.10
15997;DHT22;8103;51.340;12.326;2022-10-31T10:17:42;29.40;53.70
15997;DHT22;8103;51.340;12.326;2022-10-31T10:20:31;30.70;52.10
15997;DHT22;8103;51.340;12.326;2022-10-31T10:23:34;32.10;49.70
15997;DHT22;8103;51.340;12.326;2022-10-31T10:26:35;33.20;46.10
15997;DHT22;8103;51.340;12.326;2022-10-31T10:29:25;34.00;49.60
15997;DHT22;8103;51.340;12.326;2022-10-31T10:32:10;34.60;60.50
15997;DHT22;8103;51.340;12.326;2022-10-31T10:35:14;35.20;41.70
15997;DHT22;8103;51.340;12.326;2022-10-31T10:37:50;35.10;41.20
15997;DHT22;8103;51.340;12.326;2022-10-31T10:40:27;35.00;41.30
15997;DHT22;8103;51.340;12.326;2022-10-31T10:43:15;34.00;41.80
15997;DHT22;8103;51.340;12.326;2022-10-31T10:49:16;31.90;45.70
15997;DHT22;8103;51.340;12.326;2022-10-31T10:52:13;31.00;47.50
15997;DHT22;8103;51.340;12.326;2022-10-31T10:55:16;30.60;48.70
15997;DHT22;8103;51.340;12.326;2022-10-31T10:58:01;29.90;50.70
15997;DHT22;8103;51.340;12.326;2022-10-31T11:00:44;29.90;51.00
15997;DHT22;8103;51.340;12.326;2022-10-31T11:03:14;29.70;52.00
15997;DHT22;8103;51.340;12.326;2022-10-31T11:05:53;29.20;52.70
15997;DHT22;8103;51.340;12.326;2022-10-31T11:08:29;28.40;53.80
15997;DHT22;8103;51.340;12.326;2022-10-31T11:13:57;26.70;58.10
15997;DHT22;8103;51.340;12.326;2022-10-31T11:16:36;26.10;59.60
15997;DHT22;8103;51.340;12.326;2022-10-31T11:19:27;25.50;61.40
15997;DHT22;8103;51.340;12.326;2022-10-31T11:22:06;25.10;63.20
15997;DHT22;8103;51.340;12.326;2022-10-31T11:24:40;24.80;66.00
15997;DHT22;8103;51.340;12.326;2022-10-31T11:27:25;24.50;66.50
15997;DHT22;8103;51.340;12.326;2022-10-31T11:29:52;24.30;67.40
15997;DHT22;8103;51.340;12.326;2022-10-31T11:32:30;24.00;68.10
15997;DHT22;8103;51.340;12.326;2022-10-31T11:35:00;23.80;69.10
15997;DHT22;8103;51.340;12.326;2022-10-31T11:37:33;23.60;70.00
15997;DHT22;8103;51.340;12.326;2022-10-31T11:40:05;23.40;71.20
15997;DHT22;8103;51.340;12.326;2022-10-31T11:42:41;23.30;72.30
15997;DHT22;8103;51.340;12.326;2022-10-31T11:45:19;23.20;73.60
15997;DHT22;8103;51.340;12.326;2022-10-31T11:47:57;23.20;73.90
15997;DHT22;8103;51.340;12.326;2022-10-31T11:50:37;23.10;74.30
15997;DHT22;8103;51.340;12.326;2022-10-31T11:53:18;23.10;75.20
15997;DHT22;8103;51.340;12.326;2022-10-31T11:56:17;23.10;75.80
15997;DHT22;8103;51.340;12.326;2022-10-31T11:58:55;23.10;76.10
15997;DHT22;8103;51.340;12.326;2022-10-31T12:01:27;23.10;76.40
15997;DHT22;8103;51.340;12.326;2022-10-31T12:04:09;23.20;77.00
15997;DHT22;8103;51.340;12.326;2022-10-31T12:06:39;23.20;77.70
15997;DHT22;8103;51.340;12.326;2022-10-31T12:09:23;23.40;77.50
15997;DHT22;8103;51.340;12.326;2022-10-31T12:15:09;23.70;76.70
15997;DHT22;8103;51.340;12.326;2022-10-31T12:36:55;25.50;69.80
15997;DHT22;8103;51.340;12.326;2022-10-31T12:45:53;26.70;64.50
15997;DHT22;8103;51.340;12.326;2022-10-31T12:48:52;26.80;63.30
15997;DHT22;8103;51.340;12.326;2022-10-31T12:51:58;26.90;63.40
15997;DHT22;8103;51.340;12.326;2022-10-31T12:57:57;27.50;61.30
15997;DHT22;8103;51.340;12.326;2022-10-31T13:00:29;27.90;59.40
15997;DHT22;8103;51.340;12.326;2022-10-31T13:06:07;28.20;58.30
15997;DHT22;8103;51.340;12.326;2022-10-31T13:08:52;28.20;57.90
15997;DHT22;8103;51.340;12.326;2022-10-31T13:11:37;28.00;58.00
15997;DHT22;8103;51.340;12.326;2022-10-31T13:17:43;27.30;59.00
15997;DHT22;8103;51.340;12.326;2022-10-31T13:23:32;26.50;60.90
15997;DHT22;8103;51.340;12.326;2022-10-31T13:26:41;26.10;62.40
15997;DHT22;8103;51.340;12.326;2022-10-31T13:32:04;25.10;65.30
15997;DHT22;8103;51.340;12.326;2022-10-31T13:34:39;24.80;66.70
15997;DHT22;8103;51.340;12.326;2022-10-31T13:37:17;24.40;68.30
15997;DHT22;8103;51.340;12.326;2022-10-31T13:43:22;23.80;71.30
15997;DHT22;8103;51.340;12.326;2022-10-31T13:45:56;23.50;72.90
15997;DHT22;8103;51.340;12.326;2022-10-31T13:48:35;23.20;74.10
15997;DHT22;8103;51.340;12.326;2022-10-31T13:51:10;22.90;75.30
15997;DHT22;8103;51.340;12.326;2022-10-31T13:56:34;22.40;78.90
15997;DHT22;8103;51.340;12.326;2022-10-31T14:01:35;22.00;82.60
15997;DHT22;8103;51.340;12.326;2022-10-31T14:04:23;21.80;83.50
15997;DHT22;8103;51.340;12.326;2022-10-31T14:10:06;21.50;86.10
15997;DHT22;8103;51.340;12.326;2022-10-31T14:12:48;21.30;87.80
15997;DHT22;8103;51.340;12.326;2022-10-31T14:15:21;21.20;89.40
15997;DHT22;8103;51.340;12.326;2022-10-31T14:17:55;21.10;90.20
15997;DHT22;8103;51.340;12.326;2022-10-31T14:20:30;20.90;90.80
15997;DHT22;8103;51.340;12.326;2022-10-31T14:23:09;20.80;91.60
15997;DHT22;8103;51.340;12.326;2022-10-31T14:25:40;20.60;92.40
15997;DHT22;8103;51.340;12.326;2022-10-31T14:28:33;20.40;93.20
15997;DHT22;8103;51.340;12.326;2022-10-31T14:31:02;20.30;94.00
15997;DHT22;8103;51.340;12.326;2022-10-31T14:33:30;20.20;94.50
15997;DHT22;8103;51.340;12.326;2022-10-31T14:36:12;20.10;95.00
15997;DHT22;8103;51.340;12.326;2022-10-31T14:39:17;20.00;95.50
15997;DHT22;8103;51.340;12.326;2022-10-31T14:42:10;19.80;96.00
15997;DHT22;8103;51.340;12.326;2022-10-31T14:48:22;19.60;97.00
15997;DHT22;8103;51.340;12.326;2022-10-31T14:51:02;19.50;97.60
15997;DHT22;8103;51.340;12.326;2022-10-31T14:53:49;19.40;98.00
15997;DHT22;8103;51.340;12.326;2022-10-31T14:56:24;19.30;98.30
15997;DHT22;8103;51.340;12.326;2022-10-31T14:58:59;19.20;99.00
15997;DHT22;8103;51.340;12.326;2022-10-31T15:01:36;19.10;99.00
15997;DHT22;8103;51.340;12.326;2022-10-31T15:04:18;19.00;99.30
15997;DHT22;8103;51.340;12.326;2022-10-31T15:07:21;18.90;99.70
15997;DHT22;8103;51.340;12.326;2022-10-31T15:10:24;18.80;99.90
15997;DHT22;8103;51.340;12.326;2022-10-31T15:12:54;18.70;99.90
15997;DHT22;8103;51.340;12.326;2022-10-31T15:15:22;18.60;99.90
15997;DHT22;8103;51.340;12.326;2022-10-31T15:18:24;18.50;99.90
15997;DHT22;8103;51.340;12.326;2022-10-31T15:20:55;18.40;99.90
15997;DHT22;8103;51.340;12.326;2022-10-31T15:23:26;18.30;99.90
15997;DHT22;8103;51.340;12.326;2022-10-31T15:25:59;18.20;99.90
15997;DHT22;8103;51.340;12.326;2022-10-31T15:28:28;18.10;99.90
15997;DHT22;8103;51.340;12.326;2022-10-31T15:31:00;18.00;99.90
15997;DHT22;8103;51.340;12.326;2022-10-31T15:33:31;17.90;99.90
15997;DHT22;8103;51.340;12.326;2022-10-31T15:36:22;17.80;99.90
15997;DHT22;8103;51.340;12.326;2022-10-31T15:38:55;17.70;99.90
15997;DHT22;8103;51.340;12.326;2022-10-31T15:41:38;17.60;99.90
15997;DHT22;8103;51.340;12.326;2022-10-31T15:44:16;17.50;99.90
15997;DHT22;8103;51.340;12.326;2022-10-31T15:46:56;17.50;99.90
15997;DHT22;8103;51.340;12.326;2022-10-31T15:49:38;17.40;99.90
15997;DHT22;8103;51.340;12.326;2022-10-31T15:52:18;17.30;99.90
15997;DHT22;8103;51.340;12.326;2022-10-31T15:55:19;17.20;99.90
15997;DHT22;8103;51.340;12.326;2022-10-31T15:57:52;17.10;99.90
15997;DHT22;8103;51.340;12.326;2022-10-31T16:11:17;16.80;99.90
15997;DHT22;8103;51.340;12.326;2022-10-31T16:13:58;16.80;99.90
15997;DHT22;8103;51.340;12.326;2022-10-31T16:16:29;16.70;99.90
15997;DHT22;8103;51.340;12.326;2022-10-31T16:19:18;16.70;99.90
15997;DHT22;8103;51.340;12.326;2022-10-31T16:22:22;16.60;99.90
15997;DHT22;8103;51.340;12.326;2022-10-31T16:24:55;16.60;99.90
15997;DHT22;8103;51.340;12.326;2022-10-31T16:27:30;16.50;99.90
15997;DHT22;8103;51.340;12.326;2022-10-31T16:30:02;16.50;99.90
15997;DHT22;8103;51.340;12.326;2022-10-31T16:32:58;16.40;99.90
15997;DHT22;8103;51.340;12.326;2022-10-31T16:35:39;16.40;99.90
15997;DHT22;8103;51.340;12.326;2022-10-31T16:38:06;16.40;99.90
15997;DHT22;8103;51.340;12.326;2022-10-31T16:40:35;16.30;99.90
15997;DHT22;8103;51.340;12.326;2022-10-31T16:43:05;16.30;99.90
15997;DHT22;8103;51.340;12.326;2022-10-31T16:45:43;16.30;99.90
15997;DHT22;8103;51.340;12.326;2022-10-31T16:48:17;16.20;99.90
15997;DHT22;8103;51.340;12.326;2022-10-31T16:50:49;16.20;99.90
15997;DHT22;8103;51.340;12.326;2022-10-31T16:53:17;16.20;99.90
15997;DHT22;8103;51.340;12.326;2022-10-31T16:55:45;16.10;99.90
15997;DHT22;8103;51.340;12.326;2022-10-31T16:58:19;16.10;99.90
15997;DHT22;8103;51.340;12.326;2022-10-31T17:00:51;16.10;99.90
15997;DHT22;8103;51.340;12.326;2022-10-31T17:03:20;16.10;99.90
15997;DHT22;8103;51.340;12.326;2022-10-31T17:05:48;16.00;99.90
15997;DHT22;8103;51.340;12.326;2022-10-31T17:08:15;16.00;99.90
15997;DHT22;8103;51.340;12.326;2022-10-31T17:10:43;15.90;99.90
15997;DHT22;8103;51.340;12.326;2022-10-31T17:13:17;15.90;99.90
15997;DHT22;8103;51.340;12.326;2022-10-31T17:15:50;15.90;99.90
15997;DHT22;8103;51.340;12.326;2022-10-31T17:18:20;15.80;99.90
15997;DHT22;8103;51.340;12.326;2022-10-31T17:20:57;15.80;99.90
15997;DHT22;8103;51.340;12.326;2022-10-31T17:23:28;15.80;99.90
15997;DHT22;8103;51.340;12.326;2022-10-31T17:25:55;15.80;99.90
15997;DHT22;8103;51.340;12.326;2022-10-31T17:28:23;15.70;99.90
15997;DHT22;8103;51.340;12.326;2022-10-31T17:30:54;15.70;99.90
15997;DHT22;8103;51.340;12.326;2022-10-31T17:33:24;15.70;99.90
15997;DHT22;8103;51.340;12.326;2022-10-31T17:35:51;15.60;99.90
15997;DHT22;8103;51.340;12.326;2022-10-31T17:38:18;15.60;99.90
15997;DHT22;8103;51.340;12.326;2022-10-31T17:40:45;15.60;99.90
15997;DHT22;8103;51.340;12.326;2022-10-31T17:43:13;15.50;99.90
15997;DHT22;8103;51.340;12.326;2022-10-31T17:45:41;15.60;99.90
15997;DHT22;8103;51.340;12.326;2022-10-31T17:48:10;15.50;99.90
15997;DHT22;8103;51.340;12.326;2022-10-31T17:50:38;15.50;99.90
15997;DHT22;8103;51.340;12.326;2022-10-31T17:53:07;15.50;99.90
15997;DHT22;8103;51.340;12.326;2022-10-31T17:55:34;15.40;99.90
15997;DHT22;8103;51.340;12.326;2022-10-31T17:58:04;15.40;99.90
15997;DHT22;8103;51.340;12.326;2022-10-31T18:00:31;15.30;99.90
15997;DHT22;8103;51.340;12.326;2022-10-31T18:02:59;15.30;99.90
15997;DHT22;8103;51.340;12.326;2022-10-31T18:05:28;15.30;99.90
15997;DHT22;8103;51.340;12.326;2022-10-31T18:07:56;15.30;99.90